Time;durP1;ratioP1;P1;durP2;ratioP2;P2;SDS_P1;SDS_P2;PMS_P1;PMS_P2;Temp;Humidity;BMP_temperature;BMP_pressure;BME280_temperature;BME280_humidity;BME280_pressure;Samples;Min_cycle;Max_cycle;Signal;HPM_P1;HPM_P2
2022/09/02 00:01:34;;;;;;;1.40;1.40;;;23.80;46.40;;;;;;5034266;28;20488;-64
2022/09/02 00:04:04;;;;;;;1.20;1.20;;;23.90;46.50;;;;;;5034205;28;20472;-64
2022/09/02 00:06:31;;;;;;;1.50;1.50;;;23.80;46.40;;;;;;5032119;28;20437;-64
2022/09/02 00:08:59;;;;;;;2.97;1.83;;;23.80;46.40;;;;;;5033296;28;20465;-64
2022/09/02 00:11:31;;;;;;;1.30;1.30;;;23.80;46.50;;;;;;5034089;28;20479;-64
2022/09/02 00:14:01;;;;;;;1.90;1.43;;;23.80;46.50;;;;;;5033943;28;20441;-65
2022/09/02 00:16:30;;;;;;;1.57;1.43;;;23.80;46.50;;;;;;5033843;28;20477;-64
2022/09/02 00:18:59;;;;;;;1.70;1.60;;;23.80;46.50;;;;;;5033629;28;20862;-64
2022/09/02 00:21:26;;;;;;;1.20;1.20;;;23.80;46.60;;;;;;5033608;28;20541;-64
2022/09/02 00:23:53;;;;;;;1.60;1.50;;;23.80;46.70;;;;;;5033962;28;20485;-64
2022/09/02 00:26:21;;;;;;;1.50;1.40;;;23.80;46.70;;;;;;5033434;28;20532;-64
2022/09/02 00:28:48;;;;;;;1.90;1.30;;;23.80;46.70;;;;;;5033528;28;20473;-64
2022/09/02 00:31:15;;;;;;;1.97;1.27;;;23.80;46.70;;;;;;5033793;28;20479;-64
2022/09/02 00:33:43;;;;;;;1.07;1.07;;;23.80;46.70;;;;;;5033922;28;20445;-63
2022/09/02 00:36:12;;;;;;;1.80;1.70;;;23.80;46.70;;;;;;5033332;28;20516;-64
2022/09/02 00:38:39;;;;;;;1.27;1.27;;;23.80;46.80;;;;;;5033970;28;20920;-63
2022/09/02 00:41:09;;;;;;;1.20;1.20;;;23.80;46.80;;;;;;5033750;28;20449;-62
2022/09/02 00:43:42;;;;;;;1.27;1.10;;;23.80;46.80;;;;;;5034050;28;20473;-62
2022/09/02 00:46:10;;;;;;;1.40;1.37;;;23.70;46.80;;;;;;5033082;28;20472;-63
2022/09/02 00:48:41;;;;;;;2.80;1.70;;;23.70;46.90;;;;;;5033288;28;20496;-63
2022/09/02 00:51:09;;;;;;;2.13;1.20;;;23.80;47.00;;;;;;5033545;28;20525;-64
2022/09/02 00:53:40;;;;;;;3.00;1.33;;;23.70;47.00;;;;;;5033241;28;20477;-64
2022/09/02 00:56:13;;;;;;;1.10;1.10;;;23.70;47.00;;;;;;5033564;28;20909;-64
2022/09/02 00:58:41;;;;;;;3.13;1.40;;;23.70;47.00;;;;;;5033683;28;20523;-64
2022/09/02 01:01:10;;;;;;;3.57;1.40;;;23.70;47.00;;;;;;5034143;28;20966;-64
2022/09/02 01:03:39;;;;;;;1.77;1.67;;;23.70;47.00;;;;;;5034422;28;20956;-64
2022/09/02 01:06:06;;;;;;;1.83;1.53;;;23.70;47.10;;;;;;5033862;28;20449;-64
2022/09/02 01:08:38;;;;;;;1.40;1.40;;;23.70;47.20;;;;;;5034303;28;20473;-64
2022/09/02 01:11:06;;;;;;;1.33;1.33;;;23.70;47.20;;;;;;5033415;28;20503;-64
2022/09/02 01:13:39;;;;;;;1.20;1.20;;;23.70;47.20;;;;;;5033608;28;20457;-63
2022/09/02 01:16:13;;;;;;;1.83;1.20;;;23.70;47.30;;;;;;5033390;28;20571;-63
2022/09/02 01:18:43;;;;;;;1.53;1.43;;;23.70;47.40;;;;;;5033251;28;20496;-64
2022/09/02 01:21:10;;;;;;;1.40;1.40;;;23.70;47.40;;;;;;5033119;28;20445;-64
2022/09/02 01:23:39;;;;;;;1.30;1.30;;;23.70;47.40;;;;;;5033352;28;20531;-64
2022/09/02 01:26:06;;;;;;;1.70;1.07;;;23.70;47.50;;;;;;5033637;28;20456;-62
2022/09/02 01:28:34;;;;;;;1.63;1.30;;;23.70;47.50;;;;;;5033306;28;20469;-64
2022/09/02 01:31:01;;;;;;;1.63;1.50;;;23.70;47.60;;;;;;5032939;28;20868;-64
2022/09/02 01:33:29;;;;;;;2.00;1.43;;;23.70;47.70;;;;;;5033121;28;20811;-64
2022/09/02 01:35:56;;;;;;;1.30;1.30;;;23.70;47.70;;;;;;5033074;28;20567;-63
2022/09/02 01:38:24;;;;;;;1.33;1.33;;;23.70;47.70;;;;;;5033163;28;20552;-64
2022/09/02 01:40:53;;;;;;;1.20;1.10;;;23.70;47.80;;;;;;5033234;28;20452;-64
2022/09/02 01:43:22;;;;;;;1.67;0.90;;;23.70;47.80;;;;;;5033133;28;20484;-64
2022/09/02 01:45:52;;;;;;;2.77;1.73;;;23.70;47.90;;;;;;5032962;28;20441;-64
2022/09/02 01:48:20;;;;;;;1.60;1.50;;;23.70;47.90;;;;;;5032659;28;20472;-64
2022/09/02 01:50:50;;;;;;;1.20;1.20;;;23.70;48.00;;;;;;5032573;28;20484;-64
2022/09/02 01:53:17;;;;;;;1.20;1.20;;;23.70;47.90;;;;;;5032768;28;20531;-63
2022/09/02 01:55:45;;;;;;;2.57;1.50;;;23.70;47.90;;;;;;5033130;28;20578;-63
2022/09/02 01:58:13;;;;;;;1.47;1.37;;;23.60;47.90;;;;;;5032778;28;20540;-64
2022/09/02 02:00:40;;;;;;;1.33;1.33;;;23.60;47.90;;;;;;5032140;28;20935;-63
2022/09/02 02:03:07;;;;;;;1.37;1.30;;;23.60;47.90;;;;;;5032741;28;20505;-64
2022/09/02 02:05:34;;;;;;;1.03;1.03;;;23.60;47.90;;;;;;5032828;28;20502;-64
2022/09/02 02:08:01;;;;;;;1.53;1.23;;;23.60;48.00;;;;;;5032756;28;20503;-64
2022/09/02 02:10:28;;;;;;;1.00;1.00;;;23.60;48.00;;;;;;5032663;28;20445;-64
2022/09/02 02:12:55;;;;;;;1.30;1.20;;;23.60;48.10;;;;;;5032450;28;20484;-64
2022/09/02 02:15:24;;;;;;;1.40;1.40;;;23.60;48.10;;;;;;5032260;28;20487;-64
2022/09/02 02:17:51;;;;;;;1.60;1.60;;;23.60;48.20;;;;;;5032023;28;20547;-64
2022/09/02 02:20:20;;;;;;;1.47;1.37;;;23.60;48.20;;;;;;5032279;28;20441;-64
2022/09/02 02:22:48;;;;;;;1.27;1.27;;;23.60;48.20;;;;;;5033873;28;20449;-64
2022/09/02 02:25:16;;;;;;;1.50;1.40;;;23.60;48.20;;;;;;5032466;28;20456;-63
2022/09/02 02:27:44;;;;;;;2.27;1.20;;;23.60;48.20;;;;;;5031940;28;20445;-63
2022/09/02 02:30:13;;;;;;;1.27;1.20;;;23.60;48.20;;;;;;5031884;28;20456;-63
2022/09/02 02:32:43;;;;;;;1.03;0.93;;;23.60;48.20;;;;;;5032162;28;20523;-64
2022/09/02 02:35:10;;;;;;;1.47;1.37;;;23.60;48.30;;;;;;5032044;28;20499;-63
2022/09/02 02:37:37;;;;;;;1.33;1.33;;;23.60;48.30;;;;;;5031451;28;20508;-62
2022/09/02 02:40:06;;;;;;;1.10;1.10;;;23.60;48.30;;;;;;5031571;28;20450;-62
2022/09/02 02:42:33;;;;;;;2.33;1.70;;;23.60;48.30;;;;;;5032083;28;20447;-63
2022/09/02 02:45:00;;;;;;;2.63;1.27;;;23.50;48.30;;;;;;5031886;28;20856;-63
2022/09/02 02:47:27;;;;;;;1.57;1.47;;;23.60;48.40;;;;;;5031626;28;20528;-64
2022/09/02 02:49:55;;;;;;;1.27;1.17;;;23.60;48.40;;;;;;5031662;28;20507;-63
2022/09/02 02:52:22;;;;;;;1.27;1.27;;;23.60;48.50;;;;;;5031944;28;20873;-62
2022/09/02 02:54:49;;;;;;;1.60;1.60;;;23.60;48.50;;;;;;5031677;28;20449;-64
2022/09/02 02:57:16;;;;;;;1.20;1.20;;;23.60;48.50;;;;;;5031590;28;20488;-63
2022/09/02 02:59:43;;;;;;;1.00;1.00;;;23.50;48.40;;;;;;5031972;28;20472;-63
2022/09/02 03:02:10;;;;;;;1.00;1.00;;;23.50;48.40;;;;;;5033026;28;20536;-63
2022/09/02 03:04:40;;;;;;;2.53;1.67;;;23.50;48.50;;;;;;5032772;28;20532;-64
2022/09/02 03:07:08;;;;;;;2.80;1.70;;;23.50;48.60;;;;;;5031665;28;20460;-63
2022/09/02 03:09:35;;;;;;;1.30;1.20;;;23.50;48.50;;;;;;5032908;28;20500;-64
2022/09/02 03:12:03;;;;;;;1.40;1.30;;;23.50;48.60;;;;;;5036214;28;20444;-64
2022/09/02 03:14:31;;;;;;;1.40;1.30;;;23.50;48.60;;;;;;5036483;28;20869;-63
2022/09/02 03:16:58;;;;;;;1.90;1.60;;;23.50;48.60;;;;;;5036021;28;20598;-64
2022/09/02 03:19:26;;;;;;;1.30;1.30;;;23.50;48.60;;;;;;5036760;28;20974;-63
2022/09/02 03:21:53;;;;;;;1.47;1.47;;;23.50;48.60;;;;;;5035945;28;20453;-62
2022/09/02 03:24:22;;;;;;;1.03;1.03;;;23.60;48.80;;;;;;5036201;28;20480;-64
2022/09/02 03:26:48;;;;;;;1.47;1.37;;;23.50;48.70;;;;;;5035647;28;21167;-64
2022/09/02 03:29:15;;;;;;;1.17;1.17;;;23.50;48.80;;;;;;5035861;28;20547;-63
2022/09/02 03:31:42;;;;;;;1.50;1.43;;;23.50;48.90;;;;;;5036428;28;20437;-64
2022/09/02 03:34:10;;;;;;;1.43;1.40;;;23.50;48.90;;;;;;5036398;28;20472;-64
2022/09/02 03:36:39;;;;;;;1.70;1.30;;;23.50;48.90;;;;;;5036357;28;20851;-63
2022/09/02 03:39:08;;;;;;;1.60;1.50;;;23.50;49.00;;;;;;5036293;28;20483;-64
2022/09/02 03:41:36;;;;;;;1.73;1.30;;;23.50;49.00;;;;;;5035674;28;20485;-64
2022/09/02 03:44:04;;;;;;;1.53;1.30;;;23.50;49.10;;;;;;5035763;28;20476;-62
2022/09/02 03:46:31;;;;;;;1.30;1.30;;;23.50;49.20;;;;;;5035947;28;20445;-64
2022/09/02 03:48:58;;;;;;;1.23;1.20;;;23.50;49.20;;;;;;5035682;28;20493;-64
2022/09/02 03:51:26;;;;;;;1.20;1.20;;;23.50;49.20;;;;;;5036355;28;20479;-64
2022/09/02 03:53:54;;;;;;;0.90;0.90;;;23.50;49.10;;;;;;5035654;28;20555;-64
2022/09/02 03:56:23;;;;;;;1.53;1.53;;;23.50;49.10;;;;;;5037378;28;20567;-63
2022/09/02 03:58:52;;;;;;;1.30;1.30;;;23.50;49.10;;;;;;5038629;28;20557;-61
2022/09/02 04:01:22;;;;;;;1.27;1.27;;;23.50;49.10;;;;;;5038734;28;20476;-63
2022/09/02 04:03:49;;;;;;;2.17;0.97;;;23.50;49.60;;;;;;5035208;28;20483;-64
2022/09/02 04:06:20;;;;;;;1.73;1.30;;;23.50;49.20;;;;;;5035795;28;20524;-63
2022/09/02 04:08:48;;;;;;;2.60;2.40;;;23.50;49.10;;;;;;5039856;28;20504;-65
2022/09/02 04:11:18;;;;;;;1.53;1.53;;;23.50;49.10;;;;;;5040488;28;20465;-65
2022/09/02 04:13:46;;;;;;;1.67;1.57;;;23.50;49.10;;;;;;5039868;28;20536;-65
2022/09/02 04:16:17;;;;;;;3.17;1.40;;;23.50;49.10;;;;;;5040571;28;20575;-65
2022/09/02 04:18:44;;;;;;;1.27;1.20;;;23.50;49.10;;;;;;5040142;28;21319;-65
2022/09/02 04:21:12;;;;;;;2.33;1.30;;;23.50;49.10;;;;;;5038236;28;20468;-66
2022/09/02 04:23:39;;;;;;;4.10;1.83;;;23.50;49.20;;;;;;5042839;28;20509;-66
2022/09/02 04:26:07;;;;;;;1.30;1.20;;;23.50;49.20;;;;;;5040520;28;20524;-65
2022/09/02 04:28:35;;;;;;;2.17;1.33;;;23.50;49.80;;;;;;5038673;28;20488;-64
2022/09/02 04:31:04;;;;;;;1.77;1.60;;;23.50;49.30;;;;;;5033730;28;20480;-63
2022/09/02 04:33:33;;;;;;;4.33;1.73;;;23.50;49.30;;;;;;5033963;28;20451;-65
2022/09/02 04:36:00;;;;;;;2.10;1.00;;;23.60;49.30;;;;;;5033593;28;21005;-65
2022/09/02 04:38:27;;;;;;;1.50;1.10;;;23.50;49.20;;;;;;5033254;28;20487;-62
2022/09/02 04:40:54;;;;;;;2.17;1.67;;;23.50;49.20;;;;;;5033715;28;20808;-63
2022/09/02 04:43:21;;;;;;;1.00;0.90;;;23.50;49.20;;;;;;5033422;28;20879;-62
2022/09/02 04:45:48;;;;;;;1.27;1.07;;;23.50;49.20;;;;;;5033576;28;20477;-65
2022/09/02 04:48:15;;;;;;;1.33;1.23;;;23.50;49.20;;;;;;5033297;28;20493;-66
2022/09/02 04:50:44;;;;;;;2.30;1.30;;;23.50;49.20;;;;;;5033192;28;20856;-63
2022/09/02 04:53:11;;;;;;;2.57;1.27;;;23.50;49.20;;;;;;5033315;28;20532;-66
2022/09/02 04:55:40;;;;;;;1.00;1.00;;;23.50;49.10;;;;;;5033163;28;20528;-66
2022/09/02 04:58:07;;;;;;;3.13;1.30;;;23.50;49.10;;;;;;5032916;28;20515;-66
2022/09/02 05:00:34;;;;;;;1.43;1.33;;;23.50;49.10;;;;;;5032889;28;20476;-65
2022/09/02 05:03:03;;;;;;;1.67;1.40;;;23.50;49.10;;;;;;5033150;28;20481;-65
2022/09/02 05:05:30;;;;;;;1.50;1.40;;;23.50;49.10;;;;;;5032999;28;20480;-66
2022/09/02 05:07:58;;;;;;;3.40;1.40;;;23.50;49.10;;;;;;5033152;28;20552;-66
2022/09/02 05:10:25;;;;;;;2.20;1.20;;;23.50;49.10;;;;;;5032594;28;20532;-66
2022/09/02 05:12:53;;;;;;;3.50;1.43;;;23.50;49.10;;;;;;5032839;28;20527;-65
2022/09/02 05:15:20;;;;;;;1.63;1.53;;;23.50;49.10;;;;;;5032801;28;20476;-64
2022/09/02 05:17:47;;;;;;;2.03;1.10;;;23.50;49.10;;;;;;5032717;28;20549;-65
2022/09/02 05:20:14;;;;;;;1.30;1.30;;;23.50;49.10;;;;;;5032577;28;20793;-65
2022/09/02 05:22:42;;;;;;;2.50;2.03;;;23.50;48.90;;;;;;5032676;28;20954;-65
2022/09/02 05:25:11;;;;;;;2.60;1.40;;;23.50;49.00;;;;;;5032532;28;21001;-66
2022/09/02 05:27:38;;;;;;;1.33;1.30;;;23.50;49.10;;;;;;5032534;28;20932;-65
2022/09/02 05:30:06;;;;;;;1.57;1.13;;;23.50;49.10;;;;;;5032348;28;20480;-65
2022/09/02 05:32:33;;;;;;;3.40;1.40;;;23.50;49.00;;;;;;5032167;28;20572;-65
2022/09/02 05:35:01;;;;;;;2.50;1.20;;;23.50;49.00;;;;;;5032598;28;20476;-66
2022/09/02 05:37:28;;;;;;;2.53;1.40;;;23.50;49.00;;;;;;5032130;28;20538;-65
2022/09/02 05:39:55;;;;;;;2.00;1.63;;;23.50;48.90;;;;;;5032159;28;20445;-65
2022/09/02 05:42:23;;;;;;;1.30;1.20;;;23.50;49.00;;;;;;5032137;28;20480;-66
2022/09/02 05:44:50;;;;;;;1.43;1.23;;;23.50;48.90;;;;;;5032271;28;20484;-66
2022/09/02 05:47:17;;;;;;;1.33;1.23;;;23.50;48.90;;;;;;5032119;28;20440;-65
2022/09/02 05:49:44;;;;;;;1.33;1.20;;;23.50;48.90;;;;;;5032055;28;20464;-66
2022/09/02 05:52:13;;;;;;;1.80;1.37;;;23.50;48.90;;;;;;5032235;28;20536;-65
2022/09/02 05:54:40;;;;;;;1.47;1.37;;;23.40;48.80;;;;;;5032095;28;20447;-66
2022/09/02 05:57:09;;;;;;;1.37;1.27;;;23.50;48.90;;;;;;5032027;28;20587;-65
2022/09/02 05:59:41;;;;;;;3.90;1.20;;;23.40;48.80;;;;;;5031679;28;20873;-65
2022/09/02 06:02:10;;;;;;;1.40;1.30;;;23.50;48.90;;;;;;5032066;28;20527;-65
2022/09/02 06:04:41;;;;;;;1.90;1.80;;;23.40;48.90;;;;;;5032331;28;20449;-65
2022/09/02 06:07:08;;;;;;;1.30;1.20;;;23.50;48.90;;;;;;5032005;28;20524;-65
2022/09/02 06:09:35;;;;;;;5.03;1.77;;;23.50;48.90;;;;;;5031588;28;20472;-65
2022/09/02 06:12:03;;;;;;;1.67;1.37;;;23.50;48.80;;;;;;5031908;28;20868;-65
2022/09/02 06:14:30;;;;;;;2.00;1.80;;;23.40;48.80;;;;;;5032119;28;20455;-65
2022/09/02 06:16:59;;;;;;;1.70;1.60;;;23.40;48.80;;;;;;5032066;28;20481;-65
2022/09/02 06:19:29;;;;;;;1.80;1.60;;;23.40;48.80;;;;;;5031507;28;20507;-65
2022/09/02 06:21:56;;;;;;;2.80;1.80;;;23.40;48.80;;;;;;5031780;28;20959;-65
2022/09/02 06:24:23;;;;;;;3.13;1.70;;;23.40;48.80;;;;;;5034843;28;20449;-65
2022/09/02 06:26:51;;;;;;;1.40;1.30;;;23.40;48.80;;;;;;5038177;28;20520;-64
2022/09/02 06:29:19;;;;;;;1.70;1.60;;;23.40;48.80;;;;;;5032330;28;20476;-65
2022/09/02 06:31:47;;;;;;;5.50;3.17;;;23.40;48.80;;;;;;5031735;28;20499;-65
2022/09/02 06:34:17;;;;;;;1.60;1.50;;;23.40;48.90;;;;;;5031584;28;20477;-65
2022/09/02 06:36:46;;;;;;;2.13;1.93;;;23.40;48.80;;;;;;5031555;28;20528;-64
2022/09/02 06:39:15;;;;;;;23.53;4.60;;;23.40;48.90;;;;;;5063986;22;21022;-69
2022/09/02 06:41:45;;;;;;;1.70;1.60;;;23.40;48.80;;;;;;5065833;28;20529;-70
2022/09/02 06:44:14;;;;;;;1.50;1.40;;;23.40;48.90;;;;;;5052285;28;20448;-69
2022/09/02 06:46:43;;;;;;;1.73;1.60;;;23.40;48.90;;;;;;5055599;28;20466;-69
2022/09/02 06:49:11;;;;;;;1.20;1.20;;;23.40;48.90;;;;;;5063077;28;20491;-69
2022/09/02 06:51:42;;;;;;;1.60;1.50;;;23.40;49.00;;;;;;5075279;28;21013;-69
2022/09/02 06:54:11;;;;;;;1.50;1.30;;;23.40;49.10;;;;;;5075407;28;20479;-69
2022/09/02 06:56:38;;;;;;;1.70;1.60;;;23.40;49.10;;;;;;5075186;28;20940;-69
2022/09/02 06:59:07;;;;;;;1.60;1.50;;;23.40;49.10;;;;;;5075103;28;20463;-69
2022/09/02 07:01:35;;;;;;;1.60;1.50;;;23.40;49.10;;;;;;5075356;28;20820;-69
2022/09/02 07:06:52;;;;;;;2.37;1.90;;;23.40;49.20;;;;;;5075238;28;20437;-69
2022/09/02 07:09:20;;;;;;;1.20;1.20;;;23.40;49.20;;;;;;5074762;28;20827;-69
2022/09/02 07:11:48;;;;;;;1.50;1.37;;;23.40;49.20;;;;;;5074986;28;20482;-69
2022/09/02 07:14:15;;;;;;;1.40;1.30;;;23.40;49.30;;;;;;5074920;28;20481;-69
2022/09/02 07:16:44;;;;;;;1.60;1.33;;;23.40;49.30;;;;;;5074758;28;20446;-69
2022/09/02 07:19:11;;;;;;;1.33;1.30;;;23.40;49.30;;;;;;5074835;28;20506;-69
2022/09/02 07:21:39;;;;;;;1.83;1.73;;;23.40;49.40;;;;;;5074922;28;20931;-69
2022/09/02 07:24:08;;;;;;;1.97;1.87;;;23.40;49.40;;;;;;5074869;28;20454;-69
2022/09/02 07:26:36;;;;;;;1.43;1.33;;;23.40;49.40;;;;;;5074822;28;20483;-69
2022/09/02 07:29:03;;;;;;;1.80;1.50;;;23.40;49.50;;;;;;5074546;28;20539;-69
2022/09/02 07:31:30;;;;;;;1.30;1.30;;;23.40;49.60;;;;;;5074636;28;20959;-69
2022/09/02 07:33:58;;;;;;;2.23;1.37;;;23.40;49.60;;;;;;5074664;28;20573;-69
2022/09/02 07:36:25;;;;;;;3.17;1.63;;;23.40;49.60;;;;;;5074881;28;20443;-69
2022/09/02 07:38:53;;;;;;;1.40;1.40;;;23.40;49.70;;;;;;5074212;28;20912;-69
2022/09/02 07:41:23;;;;;;;2.07;1.97;;;23.40;49.70;;;;;;5074440;28;20447;-69
2022/09/02 07:43:50;;;;;;;2.20;2.00;;;23.40;49.70;;;;;;5074499;28;20516;-69
2022/09/02 07:46:18;;;;;;;1.73;1.43;;;23.40;49.80;;;;;;5074424;28;20526;-69
2022/09/02 07:48:44;;;;;;;1.50;1.40;;;23.40;49.90;;;;;;5074119;28;20945;-69
2022/09/02 07:51:12;;;;;;;2.13;1.40;;;23.40;49.90;;;;;;5074305;28;20527;-69
2022/09/02 07:53:39;;;;;;;2.20;1.73;;;23.40;50.00;;;;;;5074253;28;20527;-70
2022/09/02 07:56:06;;;;;;;1.50;1.40;;;23.40;50.10;;;;;;5074021;28;20439;-69
2022/09/02 07:58:35;;;;;;;1.50;1.50;;;23.40;50.10;;;;;;5074065;28;20510;-69
2022/09/02 08:01:02;;;;;;;1.63;1.50;;;23.40;50.20;;;;;;5074070;28;20447;-69
2022/09/02 08:03:30;;;;;;;1.73;1.63;;;23.40;50.20;;;;;;5074087;28;20475;-69
2022/09/02 08:05:58;;;;;;;1.93;1.60;;;23.40;50.20;;;;;;5074075;28;20482;-69
2022/09/02 08:08:27;;;;;;;1.70;1.60;;;23.40;50.80;;;;;;5073932;28;20439;-69
2022/09/02 08:10:54;;;;;;;1.40;1.30;;;23.40;50.20;;;;;;5073986;28;20447;-69
2022/09/02 08:13:21;;;;;;;1.80;1.70;;;23.40;50.30;;;;;;5073962;28;20439;-69
2022/09/02 08:15:50;;;;;;;3.63;1.90;;;23.40;50.30;;;;;;5073848;28;20538;-70
2022/09/02 08:18:17;;;;;;;1.70;1.50;;;23.40;50.40;;;;;;5073962;28;20558;-70
2022/09/02 08:20:44;;;;;;;2.10;1.60;;;23.40;50.40;;;;;;5073546;28;20539;-70
2022/09/02 08:23:11;;;;;;;1.40;1.40;;;23.40;50.40;;;;;;5073645;28;20876;-69
2022/09/02 08:25:39;;;;;;;1.80;1.70;;;23.40;51.00;;;;;;5073598;28;20443;-69
2022/09/02 08:28:06;;;;;;;2.20;1.90;;;23.40;50.50;;;;;;5073475;28;20501;-70
2022/09/02 08:30:33;;;;;;;1.50;1.50;;;23.40;50.50;;;;;;5073341;28;20498;-69
2022/09/02 08:33:02;;;;;;;3.07;2.87;;;23.50;50.60;;;;;;5073608;28;20479;-69
2022/09/02 08:35:29;;;;;;;6.83;2.07;;;23.50;50.60;;;;;;5073504;28;20889;-69
2022/09/02 08:37:57;;;;;;;2.07;1.97;;;23.50;50.70;;;;;;5073470;28;20503;-69
2022/09/02 08:40:29;;;;;;;3.20;1.80;;;23.50;50.70;;;;;;5073276;28;20558;-69
2022/09/02 08:42:57;;;;;;;2.10;2.00;;;23.50;50.70;;;;;;5073381;28;20534;-69
2022/09/02 08:45:28;;;;;;;2.30;2.17;;;23.50;50.70;;;;;;5073399;28;20548;-69
2022/09/02 08:48:06;;;;;;;1.80;1.70;;;23.50;50.70;;;;;;5073285;28;20471;-69
2022/09/02 08:50:36;;;;;;;1.73;1.63;;;23.50;50.70;;;;;;5072891;28;20532;-69
2022/09/02 08:53:10;;;;;;;2.07;1.97;;;23.50;50.70;;;;;;5073118;28;20508;-69
2022/09/02 08:55:45;;;;;;;1.67;1.57;;;23.50;50.80;;;;;;5072826;28;20550;-69
2022/09/02 08:58:16;;;;;;;4.30;1.53;;;23.50;50.80;;;;;;5073151;28;20510;-69
2022/09/02 09:00:50;;;;;;;2.40;1.80;;;23.50;50.80;;;;;;5072897;28;20536;-69
2022/09/02 09:03:25;;;;;;;2.23;2.03;;;23.50;50.80;;;;;;5073129;28;20526;-69
2022/09/02 09:05:58;;;;;;;1.77;1.70;;;23.50;50.80;;;;;;5073001;28;20529;-69
2022/09/02 09:08:32;;;;;;;1.53;1.43;;;23.50;50.80;;;;;;5071991;28;20492;-69
2022/09/02 09:11:02;;;;;;;1.80;1.70;;;23.50;50.90;;;;;;5072541;28;20518;-69
2022/09/02 09:14:02;;;;;;;1.33;1.23;;;23.50;50.90;;;;;;5072784;28;20445;-69
2022/09/02 09:16:39;;;;;;;1.20;1.20;;;23.50;50.90;;;;;;5072686;28;20443;-69
2022/09/02 09:19:12;;;;;;;1.97;1.90;;;23.50;50.90;;;;;;5072688;28;20485;-69
2022/09/02 09:21:40;;;;;;;1.77;1.50;;;23.50;51.00;;;;;;5072545;28;20929;-69
2022/09/02 09:24:15;;;;;;;2.40;1.83;;;23.50;51.00;;;;;;5072581;28;20512;-69
2022/09/02 09:26:43;;;;;;;2.30;1.63;;;23.50;51.00;;;;;;5072776;28;20849;-69
2022/09/02 09:29:11;;;;;;;2.83;1.87;;;23.50;51.00;;;;;;5072153;28;21019;-69
2022/09/02 09:31:39;;;;;;;1.73;1.70;;;23.50;51.00;;;;;;5072343;28;20492;-69
2022/09/02 09:34:09;;;;;;;2.30;2.10;;;23.50;51.00;;;;;;5072347;28;20870;-69
2022/09/02 09:36:52;;;;;;;1.53;1.43;;;23.50;51.00;;;;;;5072535;28;20486;-68
2022/09/02 09:39:22;;;;;;;3.37;1.70;;;23.50;51.10;;;;;;5072063;28;20887;-69
2022/09/02 09:41:50;;;;;;;2.30;1.50;;;23.50;51.00;;;;;;5072189;28;20456;-68
2022/09/02 09:44:37;;;;;;;2.03;1.83;;;23.50;51.00;;;;;;5072170;28;20690;-69
2022/09/02 09:47:07;;;;;;;1.60;1.50;;;23.50;51.10;;;;;;5072238;28;20859;-69
2022/09/02 09:49:36;;;;;;;1.50;1.47;;;23.50;51.10;;;;;;5071798;28;20520;-69
2022/09/02 09:52:04;;;;;;;3.40;1.67;;;23.50;51.10;;;;;;5071852;28;20530;-69
2022/09/02 09:54:31;;;;;;;1.90;1.80;;;23.50;51.00;;;;;;5072101;28;20479;-69
2022/09/02 09:57:15;;;;;;;6.13;1.70;;;23.60;51.10;;;;;;5071899;28;20870;-69
2022/09/02 09:59:48;;;;;;;1.70;1.60;;;23.60;51.00;;;;;;5071589;28;20498;-69
2022/09/02 10:02:21;;;;;;;1.70;1.60;;;23.60;50.90;;;;;;5071893;28;20493;-69
2022/09/02 10:04:50;;;;;;;1.67;1.67;;;23.60;50.90;;;;;;5071767;28;20690;-69
2022/09/02 10:07:35;;;;;;;2.87;1.60;;;23.60;50.80;;;;;;5071785;28;20478;-69
2022/09/02 10:10:19;;;;;;;2.60;1.63;;;23.60;50.80;;;;;;5071771;28;20459;-69
2022/09/02 10:12:48;;;;;;;1.53;1.43;;;23.60;50.80;;;;;;5071722;28;20490;-69
2022/09/02 10:15:15;;;;;;;1.23;1.23;;;23.60;50.70;;;;;;5071922;28;20534;-69
2022/09/02 10:17:48;;;;;;;1.43;1.43;;;23.60;50.70;;;;;;5071806;28;20471;-70
2022/09/02 10:20:22;;;;;;;2.40;2.30;;;23.60;50.70;;;;;;5070615;28;20546;-69
2022/09/02 10:23:12;;;;;;;2.93;1.50;;;23.60;50.50;;;;;;5071579;28;20920;-69
2022/09/02 10:25:59;;;;;;;1.80;1.50;;;23.60;50.50;;;;;;5071711;28;20481;-69
2022/09/02 10:28:50;;;;;;;1.60;1.50;;;23.60;50.50;;;;;;5071361;28;20810;-69
2022/09/02 10:31:22;;;;;;;1.87;1.50;;;23.60;50.30;;;;;;5071541;28;20489;-69
2022/09/02 10:34:02;;;;;;;1.87;1.87;;;23.60;49.70;;;;;;5071804;28;20454;-69
2022/09/02 10:36:37;;;;;;;1.57;1.50;;;23.60;49.50;;;;;;5071496;28;20440;-70
2022/09/02 10:39:14;;;;;;;1.40;1.40;;;23.60;49.40;;;;;;5071030;28;21014;-68
2022/09/02 10:41:45;;;;;;;1.90;1.80;;;23.60;49.40;;;;;;5071402;28;20538;-69
2022/09/02 10:44:35;;;;;;;1.70;1.70;;;23.60;49.30;;;;;;5071792;28;20932;-69
2022/09/02 10:47:07;;;;;;;1.87;1.77;;;23.70;49.00;;;;;;5067963;28;20485;-69
2022/09/02 10:49:56;;;;;;;1.60;1.50;;;23.60;48.80;;;;;;5071195;28;20549;-70
2022/09/02 10:52:46;;;;;;;1.80;1.70;;;23.60;48.70;;;;;;5071355;28;20439;-69
2022/09/02 10:55:20;;;;;;;3.40;2.07;;;23.70;48.80;;;;;;5071457;28;20823;-69
2022/09/02 10:57:51;;;;;;;2.13;1.87;;;23.70;48.30;;;;;;5071266;28;20522;-69
2022/09/02 11:00:20;;;;;;;1.80;1.73;;;23.70;48.20;;;;;;5071041;28;20459;-69
2022/09/02 11:02:52;;;;;;;1.87;1.77;;;23.70;48.20;;;;;;5070909;28;20865;-69
2022/09/02 11:05:22;;;;;;;1.87;1.63;;;23.70;48.30;;;;;;5071178;28;20474;-69
2022/09/02 11:07:57;;;;;;;1.17;1.17;;;23.70;48.30;;;;;;5070944;28;20522;-70
2022/09/02 11:10:28;;;;;;;1.53;1.43;;;23.70;48.10;;;;;;5070742;28;20512;-68
2022/09/02 11:13:02;;;;;;;1.33;1.33;;;23.70;47.90;;;;;;5071108;28;20864;-68
2022/09/02 11:15:44;;;;;;;2.40;2.20;;;23.70;47.80;;;;;;5071195;28;20472;-69
2022/09/02 11:18:16;;;;;;;5.30;1.60;;;23.70;47.70;;;;;;5071017;28;20526;-69
2022/09/02 11:20:49;;;;;;;1.73;1.37;;;23.70;47.40;;;;;;5070940;28;20504;-69
2022/09/02 11:23:24;;;;;;;1.57;1.47;;;23.70;47.60;;;;;;5071230;28;20445;-69
2022/09/02 11:25:57;;;;;;;1.30;1.30;;;23.70;47.60;;;;;;5071047;28;20481;-69
2022/09/02 11:28:31;;;;;;;1.50;1.40;;;23.70;47.50;;;;;;5071069;28;20801;-70
2022/09/02 11:31:05;;;;;;;1.67;1.57;;;23.70;47.40;;;;;;5072862;28;20521;-69
2022/09/02 11:33:44;;;;;;;1.53;1.43;;;23.70;47.50;;;;;;5074588;28;20447;-68
2022/09/02 11:36:11;;;;;;;1.80;1.70;;;23.70;47.00;;;;;;5074485;28;20482;-69
2022/09/02 11:38:47;;;;;;;1.17;1.07;;;23.70;47.10;;;;;;5074072;28;20487;-69
2022/09/02 11:41:33;;;;;;;1.30;1.30;;;23.80;47.00;;;;;;5074596;28;20475;-69
2022/09/02 11:44:14;;;;;;;1.40;1.40;;;23.70;46.70;;;;;;5074401;28;20462;-69
2022/09/02 11:47:01;;;;;;;1.50;1.40;;;23.70;46.60;;;;;;5074549;28;20856;-69
2022/09/02 11:49:51;;;;;;;1.90;1.80;;;23.80;46.60;;;;;;5073984;28;20861;-69
2022/09/02 11:52:25;;;;;;;1.70;1.60;;;23.70;46.60;;;;;;5074683;28;20501;-69
2022/09/02 11:55:05;;;;;;;1.97;1.43;;;23.80;46.80;;;;;;5074298;28;20493;-70
2022/09/02 11:57:32;;;;;;;1.63;1.60;;;23.80;46.40;;;;;;5074298;28;20435;-70
2022/09/02 12:00:07;;;;;;;1.70;1.60;;;23.80;46.60;;;;;;5073809;28;20863;-70
2022/09/02 12:02:45;;;;;;;1.30;1.20;;;23.80;46.30;;;;;;5074472;28;20531;-70
2022/09/02 12:05:47;;;;;;;1.30;1.30;;;23.80;46.40;;;;;;5074022;28;20474;-70
2022/09/02 12:08:54;;;;;;;1.60;1.50;;;23.80;46.50;;;;;;5073942;28;20450;-69
2022/09/02 12:11:38;;;;;;;1.73;1.67;;;23.80;46.40;;;;;;5073628;28;20451;-70
2022/09/02 12:14:06;;;;;;;1.53;1.43;;;23.80;46.20;;;;;;5073874;28;20453;-69
2022/09/02 12:16:40;;;;;;;1.70;1.60;;;23.80;46.10;;;;;;5073888;28;20451;-69
2022/09/02 12:19:29;;;;;;;1.60;1.50;;;23.80;46.10;;;;;;5073505;28;21076;-70
2022/09/02 12:22:25;;;;;;;3.50;1.40;;;23.80;46.10;;;;;;5073796;28;20443;-69
2022/09/02 12:24:53;;;;;;;1.40;1.40;;;23.80;46.10;;;;;;5073760;28;20443;-70
2022/09/02 12:27:29;;;;;;;1.30;1.30;;;23.80;46.30;;;;;;5073585;28;20445;-71
2022/09/02 12:29:57;;;;;;;1.10;1.10;;;23.80;46.20;;;;;;5073327;28;20487;-69
2022/09/02 12:33:01;;;;;;;1.50;1.40;;;23.80;46.10;;;;;;5073518;28;20444;-70
2022/09/02 12:35:49;;;;;;;1.40;1.40;;;23.90;46.30;;;;;;5073552;28;20447;-71
2022/09/02 12:38:23;;;;;;;1.30;1.30;;;23.90;46.00;;;;;;5070998;28;20454;-70
2022/09/02 12:40:57;;;;;;;1.40;1.30;;;23.90;46.00;;;;;;5073975;28;20446;-70
2022/09/02 12:43:32;;;;;;;1.30;1.20;;;23.90;45.90;;;;;;5072430;28;20443;-70
2022/09/02 12:46:06;;;;;;;1.37;1.27;;;23.90;46.10;;;;;;5073247;28;20471;-71
2022/09/02 12:48:41;;;;;;;1.00;1.00;;;23.90;46.10;;;;;;5072976;28;20443;-70
2022/09/02 12:51:08;;;;;;;3.00;1.33;;;23.90;45.70;;;;;;5073266;28;20501;-69
2022/09/02 12:53:39;;;;;;;1.60;1.50;;;23.90;45.70;;;;;;5073290;28;20872;-70
2022/09/02 12:56:19;;;;;;;1.77;1.67;;;23.90;45.70;;;;;;5073103;28;20486;-70
2022/09/02 12:58:50;;;;;;;1.30;1.20;;;23.90;45.60;;;;;;5072673;28;20524;-70
2022/09/02 13:01:24;;;;;;;1.27;1.27;;;24.00;45.30;;;;;;5072932;28;20454;-70
2022/09/02 13:04:12;;;;;;;1.10;1.10;;;24.00;45.70;;;;;;5072876;28;20438;-71
2022/09/02 13:06:58;;;;;;;3.90;1.63;;;23.90;45.70;;;;;;5072934;28;20505;-70
2022/09/02 13:10:01;;;;;;;1.50;1.50;;;24.00;45.60;;;;;;5072555;28;20487;-70